EDDB/SXF METAR and TAF weather

Enter ICAO airport designator
Station Type Date Time Source
EDDB METAR 2019/07/20 19:50 UTC NOAA

EDDB 201950Z 09007KT CAVOK 25/13 Q1011 TEMPO 30020G40KT 3000 TSRA BKN020CB


Station Type Date Time Source
EDDB Decoded METAR 2019/07/20 19:50 UTC NOAA

Berlin-Schoenefeld, Germany (EDDB) 52-23N 013-31E 50M
Jul 20, 2019 - 03:50 PM EDT / 2019.07.20 1950 UTC
Wind: from the E (090 degrees) at 8 MPH (7 KT):0
Visibility: greater than 7 mile(s):0
Weather: Cumulonimbus clouds observed
Temperature: 77 F (25 C)
Dew Point: 55 F (13 C)
Relative Humidity: 47%
Pressure (altimeter): 29.85 in. Hg (1011 hPa)
ob: EDDB 201950Z 09007KT CAVOK 25/13 Q1011 TEMPO 30020G40KT 3000 TSRA BKN020CB
cycle: 20

Station Type Date Time Source
EDDB TAF 2019/07/20 18:27 UTC NOAA

TAF TAF EDDB 201700Z 2018/2118 19006KT CAVOK PROB30
TEMPO 2019/2021 22025G45KT 3000 TSRA BKN020CB
TEMPO 2021/2024 22015G30KT TSRA BKN015CB
BECMG 2103/2106 26008KT PROB30
TEMPO 2104/2107 BKN010
TEMPO 2110/2116 27015G25KT

Example: see airport list